createdAt,value
2019-01-31T00:00:36.518Z,81.07
2019-01-31T00:01:36.499Z,80.76
2019-01-31T00:02:36.568Z,81.29
2019-01-31T00:03:36.482Z,81.29
2019-01-31T00:04:36.541Z,81.07
2019-01-31T00:05:36.464Z,81.18
2019-01-31T00:06:36.446Z,81.18
2019-01-31T00:07:36.439Z,81.18
2019-01-31T00:08:45.644Z,81.07
2019-01-31T00:09:37.464Z,80.97
2019-01-31T00:10:36.408Z,81.32
2019-01-31T00:11:36.393Z,81.12
2019-01-31T00:12:36.386Z,81.07
2019-01-31T00:13:36.368Z,81.12
2019-01-31T00:14:36.362Z,81.22
2019-01-31T00:15:36.370Z,81.18
2019-01-31T00:16:36.337Z,81.07
2019-01-31T00:17:36.328Z,81.07
2019-01-31T00:18:36.315Z,80.97
2019-01-31T00:19:36.316Z,81.29
2019-01-31T00:20:36.296Z,81.43
2019-01-31T00:21:36.304Z,81.43
2019-01-31T00:22:36.273Z,81.29
2019-01-31T00:23:36.264Z,81.29
2019-01-31T00:24:36.250Z,81.01
2019-01-31T00:25:36.267Z,81.53
2019-01-31T00:26:36.236Z,81.43
2019-01-31T00:27:36.340Z,81.43
2019-01-31T00:28:36.211Z,81.43
2019-01-31T00:29:36.203Z,81.43
2019-01-31T00:30:36.191Z,81.43
2019-01-31T00:31:36.228Z,81.32
2019-01-31T00:32:36.168Z,81.43
2019-01-31T00:33:36.159Z,81.43
2019-01-31T00:34:36.146Z,81.32
2019-01-31T00:35:36.138Z,81.32
2019-01-31T00:36:36.173Z,81.43
2019-01-31T00:37:36.112Z,81.43
2019-01-31T00:38:36.108Z,81.43
2019-01-31T00:39:36.170Z,81.32
2019-01-31T00:40:36.076Z,81.32
2019-01-31T00:41:36.141Z,81.43
2019-01-31T00:42:36.054Z,81.74
2019-01-31T00:43:36.051Z,81.53
2019-01-31T00:44:36.039Z,82.06
2019-01-31T00:45:36.023Z,82.16
2019-01-31T00:46:36.011Z,81.95
2019-01-31T00:47:36.055Z,81.63
2019-01-31T00:48:35.999Z,81.53
2019-01-31T00:49:35.981Z,80.87
2019-01-31T00:50:35.972Z,81.43
2019-01-31T00:51:35.959Z,81.29
2019-01-31T00:52:36.032Z,81.22
2019-01-31T00:53:35.944Z,80.59
2019-01-31T00:54:35.928Z,81.63
2019-01-31T00:55:35.921Z,81.29
2019-01-31T00:56:35.907Z,81.07
2019-01-31T00:57:35.892Z,80.69
2019-01-31T00:58:35.902Z,80.80
2019-01-31T00:59:37.469Z,81.22
2019-01-31T01:00:35.864Z,80.76
2019-01-31T01:01:35.852Z,81.29
2019-01-31T01:02:35.843Z,81.32
2019-01-31T01:03:36.876Z,81.07
2019-01-31T01:04:35.871Z,81.12
2019-01-31T01:05:35.813Z,80.90
2019-01-31T01:06:35.823Z,81.12
2019-01-31T01:07:35.787Z,81.43
2019-01-31T01:08:35.772Z,81.22
2019-01-31T01:09:35.815Z,81.53
2019-01-31T01:10:35.757Z,81.32
2019-01-31T01:11:35.744Z,81.43
2019-01-31T01:12:35.850Z,81.63
2019-01-31T01:13:35.721Z,81.74
2019-01-31T01:14:35.728Z,81.74
2019-01-31T01:15:35.701Z,82.06
2019-01-31T01:16:35.687Z,81.74
2019-01-31T01:17:35.682Z,81.74
2019-01-31T01:18:35.723Z,81.32
2019-01-31T01:19:35.653Z,81.43
2019-01-31T01:20:35.645Z,81.43
2019-01-31T01:21:36.217Z,81.53
2019-01-31T01:22:35.631Z,81.43
2019-01-31T01:23:35.620Z,81.01
2019-01-31T01:24:35.620Z,81.22
2019-01-31T01:25:35.592Z,80.90
2019-01-31T01:26:35.598Z,80.90
2019-01-31T01:27:35.593Z,81.22
2019-01-31T01:28:35.558Z,81.22
2019-01-31T01:29:35.558Z,80.90
2019-01-31T01:30:35.534Z,81.22
2019-01-31T01:31:35.557Z,81.12
2019-01-31T01:32:35.566Z,81.22
2019-01-31T01:33:35.511Z,81.12
2019-01-31T01:34:35.522Z,81.01
2019-01-31T01:35:36.187Z,81.22
2019-01-31T01:36:35.475Z,81.12
2019-01-31T01:37:35.461Z,80.90
2019-01-31T01:38:35.447Z,81.12
2019-01-31T01:39:35.474Z,80.90
2019-01-31T01:40:35.432Z,81.12
2019-01-31T01:41:35.434Z,81.01
2019-01-31T01:42:35.405Z,81.12
2019-01-31T01:43:35.454Z,81.63
2019-01-31T01:44:35.419Z,81.12
2019-01-31T01:45:35.379Z,81.22
2019-01-31T01:46:35.367Z,81.32
2019-01-31T01:47:35.371Z,80.90
2019-01-31T01:48:35.342Z,81.07
2019-01-31T01:49:35.330Z,81.39
2019-01-31T01:50:35.328Z,81.22
2019-01-31T01:51:35.306Z,80.87
2019-01-31T01:52:35.305Z,80.80
2019-01-31T01:53:35.292Z,80.97
2019-01-31T01:54:35.275Z,80.76
2019-01-31T01:55:35.316Z,81.32
2019-01-31T01:56:35.259Z,80.90
2019-01-31T01:57:35.247Z,80.80
2019-01-31T01:58:35.240Z,81.12
2019-01-31T01:59:35.219Z,81.22
2019-01-31T02:00:35.361Z,80.90
2019-01-31T02:01:35.201Z,80.90
2019-01-31T02:02:35.187Z,80.59
2019-01-31T02:03:35.184Z,80.90
2019-01-31T02:04:35.171Z,81.12
2019-01-31T02:05:35.161Z,81.12
2019-01-31T02:06:35.160Z,81.43
2019-01-31T02:07:35.140Z,81.12
2019-01-31T02:08:35.175Z,81.32
2019-01-31T02:09:35.111Z,80.90
2019-01-31T02:10:35.103Z,81.01
2019-01-31T02:11:35.090Z,81.32
2019-01-31T02:12:35.084Z,81.43
2019-01-31T02:13:35.105Z,81.32
2019-01-31T02:14:35.078Z,81.01
2019-01-31T02:15:35.048Z,81.01
2019-01-31T02:16:35.038Z,80.90
2019-01-31T02:17:35.030Z,81.01
2019-01-31T02:18:35.023Z,81.12
2019-01-31T02:19:35.056Z,80.80
2019-01-31T02:20:34.998Z,80.90
2019-01-31T02:21:35.040Z,81.01
2019-01-31T02:22:34.979Z,81.12
2019-01-31T02:23:34.963Z,81.22
2019-01-31T02:24:34.955Z,81.12
2019-01-31T02:25:34.940Z,80.97
2019-01-31T02:26:34.929Z,81.39
2019-01-31T02:27:34.973Z,81.01
2019-01-31T02:28:34.918Z,80.87
2019-01-31T02:29:34.895Z,80.66
2019-01-31T02:30:34.893Z,81.01
2019-01-31T02:31:34.877Z,80.55
2019-01-31T02:32:34.917Z,80.55
2019-01-31T02:33:34.858Z,80.76
2019-01-31T02:34:34.881Z,80.49
2019-01-31T02:35:34.842Z,81.01
2019-01-31T02:36:34.821Z,80.80
2019-01-31T02:37:34.959Z,80.59
2019-01-31T02:38:34.800Z,80.69
2019-01-31T02:39:42.683Z,80.90
2019-01-31T02:40:35.782Z,81.01
2019-01-31T02:41:34.767Z,81.32
2019-01-31T02:42:34.754Z,81.12
2019-01-31T02:43:34.801Z,81.12
2019-01-31T02:44:34.739Z,81.12
2019-01-31T02:45:34.729Z,80.80
2019-01-31T02:46:34.712Z,80.90
2019-01-31T02:47:34.713Z,80.76
2019-01-31T02:48:34.765Z,80.59
2019-01-31T02:49:34.683Z,80.80
2019-01-31T02:50:34.676Z,80.80
2019-01-31T02:51:34.687Z,81.22
2019-01-31T02:52:34.647Z,81.01
2019-01-31T02:53:34.636Z,80.90
2019-01-31T02:54:34.648Z,81.01
2019-01-31T02:55:34.616Z,81.32
2019-01-31T02:56:34.613Z,80.90
2019-01-31T02:57:34.604Z,81.12
2019-01-31T02:58:34.586Z,81.12
2019-01-31T02:59:34.628Z,81.22
2019-01-31T03:00:34.568Z,81.22
2019-01-31T03:01:34.554Z,81.07
2019-01-31T03:02:34.547Z,81.32
2019-01-31T03:03:34.528Z,81.63
2019-01-31T03:04:34.585Z,81.22
2019-01-31T03:05:34.510Z,81.12
2019-01-31T03:06:34.522Z,80.90
2019-01-31T03:07:34.497Z,80.90
2019-01-31T03:08:34.481Z,80.76
2019-01-31T03:09:34.467Z,80.90
2019-01-31T03:10:34.470Z,81.22
2019-01-31T03:11:34.448Z,81.01
2019-01-31T03:12:34.433Z,81.32
2019-01-31T03:13:34.421Z,81.12
2019-01-31T03:14:34.467Z,80.80
2019-01-31T03:15:34.422Z,81.12
2019-01-31T03:16:34.388Z,80.90
2019-01-31T03:17:34.378Z,81.01
2019-01-31T03:18:34.371Z,81.22
2019-01-31T03:19:34.362Z,81.01
2019-01-31T03:20:34.423Z,81.12
2019-01-31T03:21:34.333Z,81.32
2019-01-31T03:22:34.340Z,81.01
2019-01-31T03:23:34.319Z,81.32
2019-01-31T03:24:34.309Z,81.22
2019-01-31T03:25:34.295Z,81.43
2019-01-31T03:26:34.333Z,81.43
2019-01-31T03:27:34.268Z,81.32
2019-01-31T03:28:34.257Z,81.32
2019-01-31T03:29:34.246Z,81.01
2019-01-31T03:30:34.273Z,81.32
2019-01-31T03:31:34.231Z,81.32
2019-01-31T03:32:34.270Z,81.32
2019-01-31T03:33:34.205Z,81.43
2019-01-31T03:34:34.194Z,81.22
2019-01-31T03:35:34.184Z,82.16
2019-01-31T03:36:34.198Z,81.95
2019-01-31T03:37:34.166Z,81.95
2019-01-31T03:38:34.155Z,82.16
2019-01-31T03:39:34.160Z,82.06
2019-01-31T03:40:34.131Z,82.16
2019-01-31T03:41:34.196Z,82.06
2019-01-31T03:42:34.151Z,81.63
2019-01-31T03:43:34.107Z,81.63
2019-01-31T03:44:34.088Z,81.95
2019-01-31T03:45:34.077Z,81.74
2019-01-31T03:46:34.068Z,82.16
2019-01-31T03:47:34.057Z,82.58
2019-01-31T03:48:34.093Z,82.06
2019-01-31T03:49:34.048Z,81.63
2019-01-31T03:50:34.024Z,81.74
2019-01-31T03:51:34.008Z,81.74
2019-01-31T03:52:33.998Z,82.16
2019-01-31T03:53:34.040Z,81.95
2019-01-31T03:54:33.984Z,81.95
2019-01-31T03:55:33.969Z,81.85
2019-01-31T03:56:33.955Z,82.37
2019-01-31T03:57:33.950Z,82.58
2019-01-31T03:58:33.946Z,81.78
2019-01-31T03:59:33.940Z,81.95
2019-01-31T04:00:33.918Z,81.95
2019-01-31T04:01:33.948Z,81.99
2019-01-31T04:02:33.887Z,82.47
2019-01-31T04:03:33.885Z,82.26
2019-01-31T04:04:33.874Z,82.37
2019-01-31T04:05:33.855Z,82.58
2019-01-31T04:06:33.846Z,82.37
2019-01-31T04:07:33.856Z,81.95
2019-01-31T04:08:33.824Z,81.95
2019-01-31T04:09:33.833Z,82.06
2019-01-31T04:10:33.837Z,81.74
2019-01-31T04:11:33.791Z,81.85
2019-01-31T04:12:33.784Z,81.60
2019-01-31T04:13:33.771Z,81.74
2019-01-31T04:14:33.811Z,82.02
2019-01-31T04:15:33.752Z,82.37
2019-01-31T04:16:33.747Z,81.74
2019-01-31T04:17:33.726Z,81.95
2019-01-31T04:18:33.721Z,82.06
2019-01-31T04:19:33.703Z,81.95
2019-01-31T04:20:33.725Z,82.16
2019-01-31T04:21:33.688Z,81.74
2019-01-31T04:22:33.716Z,82.06
2019-01-31T04:23:33.671Z,81.85
2019-01-31T04:24:33.668Z,81.92
2019-01-31T04:25:33.646Z,82.12
2019-01-31T04:26:33.683Z,81.92
2019-01-31T04:27:33.620Z,81.92
2019-01-31T04:28:33.610Z,82.02
2019-01-31T04:29:33.601Z,81.53
2019-01-31T04:30:33.585Z,81.74
2019-01-31T04:31:33.574Z,81.29
2019-01-31T04:32:33.572Z,81.43
2019-01-31T04:33:33.559Z,82.12
2019-01-31T04:34:33.543Z,82.12
2019-01-31T04:35:33.544Z,82.12
2019-01-31T04:36:33.574Z,81.95
2019-01-31T04:37:33.516Z,81.49
2019-01-31T04:38:33.503Z,82.02
2019-01-31T04:39:33.623Z,82.02
2019-01-31T04:40:33.475Z,81.49
2019-01-31T04:41:33.472Z,82.12
2019-01-31T04:42:33.491Z,82.12
2019-01-31T04:43:33.445Z,82.16
2019-01-31T04:44:33.438Z,82.02
2019-01-31T04:45:33.425Z,81.29
2019-01-31T04:46:33.422Z,81.49
2019-01-31T04:47:33.423Z,81.39
2019-01-31T04:48:33.443Z,81.39
2019-01-31T04:49:33.383Z,81.29
2019-01-31T04:50:33.369Z,81.18
2019-01-31T04:51:33.362Z,81.49
2019-01-31T04:52:33.398Z,80.97
2019-01-31T04:53:33.348Z,81.39
2019-01-31T04:54:33.355Z,81.29
2019-01-31T04:55:33.314Z,81.18
2019-01-31T04:56:33.353Z,80.97
2019-01-31T04:57:33.292Z,80.97
2019-01-31T04:58:33.317Z,81.07
2019-01-31T04:59:33.307Z,81.07
2019-01-31T05:00:33.259Z,80.87
2019-01-31T05:01:33.253Z,81.39
2019-01-31T05:02:33.262Z,81.18
2019-01-31T05:03:33.228Z,81.49
2019-01-31T05:04:33.260Z,81.29
2019-01-31T05:05:33.211Z,81.60
2019-01-31T05:06:33.199Z,82.02
2019-01-31T05:07:33.185Z,81.29
2019-01-31T05:08:33.190Z,81.39
2019-01-31T05:09:33.168Z,81.29
2019-01-31T05:10:42.606Z,82.12
2019-01-31T05:11:34.146Z,81.49
2019-01-31T05:12:33.130Z,82.02
2019-01-31T05:13:33.286Z,82.12
2019-01-31T05:14:33.112Z,82.02
2019-01-31T05:15:33.133Z,81.29
2019-01-31T05:16:33.087Z,81.39
2019-01-31T05:17:33.077Z,82.02
2019-01-31T05:18:33.069Z,82.12
2019-01-31T05:19:33.055Z,81.60
2019-01-31T05:20:33.058Z,82.02
2019-01-31T05:21:33.059Z,82.02
2019-01-31T05:22:33.026Z,82.02
2019-01-31T05:23:33.009Z,81.60
2019-01-31T05:24:33.008Z,82.12
2019-01-31T05:25:32.991Z,81.70
2019-01-31T05:26:32.981Z,81.70
2019-01-31T05:27:33.019Z,81.92
2019-01-31T05:28:32.972Z,81.92
2019-01-31T05:29:32.951Z,81.92
2019-01-31T05:30:32.946Z,81.60
2019-01-31T05:31:32.954Z,81.70
2019-01-31T05:32:32.932Z,81.92
2019-01-31T05:33:34.291Z,81.92
2019-01-31T05:34:32.906Z,81.81
2019-01-31T05:35:32.890Z,81.92
2019-01-31T05:36:33.005Z,82.12
2019-01-31T05:37:32.911Z,81.92
2019-01-31T05:38:32.858Z,81.92
2019-01-31T05:39:32.844Z,82.23
2019-01-31T05:40:32.832Z,81.92
2019-01-31T05:41:32.821Z,82.12
2019-01-31T05:42:32.812Z,82.75
2019-01-31T05:43:32.829Z,82.43
2019-01-31T05:44:32.837Z,82.33
2019-01-31T05:45:32.773Z,82.75
2019-01-31T05:46:32.761Z,82.86
2019-01-31T05:47:32.806Z,82.43
2019-01-31T05:48:32.777Z,81.92
2019-01-31T05:49:32.733Z,82.54
2019-01-31T05:50:32.717Z,82.43
2019-01-31T05:51:32.720Z,82.54
2019-01-31T05:52:32.702Z,82.96
2019-01-31T05:53:32.743Z,82.33
2019-01-31T05:54:32.675Z,82.75
2019-01-31T05:55:32.668Z,82.96
2019-01-31T05:56:32.656Z,82.86
2019-01-31T05:57:32.649Z,82.65
2019-01-31T05:58:32.662Z,82.33
2019-01-31T05:59:32.702Z,82.96
2019-01-31T06:00:32.619Z,82.54
2019-01-31T06:01:32.605Z,83.06
2019-01-31T06:02:32.590Z,82.65
2019-01-31T06:03:32.630Z,82.86
2019-01-31T06:04:32.573Z,82.86
2019-01-31T06:05:32.560Z,82.75
2019-01-31T06:06:32.550Z,82.43
2019-01-31T06:07:32.536Z,83.06
2019-01-31T06:08:32.529Z,83.27
2019-01-31T06:09:32.568Z,82.86
2019-01-31T06:10:33.724Z,82.96
2019-01-31T06:11:32.499Z,82.54
2019-01-31T06:12:32.482Z,82.65
2019-01-31T06:13:32.475Z,82.96
2019-01-31T06:14:32.514Z,83.17
2019-01-31T06:15:32.447Z,82.86
2019-01-31T06:16:32.438Z,83.17
2019-01-31T06:17:32.427Z,83.17
2019-01-31T06:18:32.424Z,83.06
2019-01-31T06:19:32.408Z,83.17
2019-01-31T06:20:32.429Z,83.06
2019-01-31T06:21:32.387Z,82.65
2019-01-31T06:22:32.425Z,83.06
2019-01-31T06:23:32.362Z,83.17
2019-01-31T06:24:32.352Z,83.48
2019-01-31T06:25:32.394Z,83.06
2019-01-31T06:26:32.338Z,82.86
2019-01-31T06:27:32.318Z,82.65
2019-01-31T06:28:32.309Z,82.75
2019-01-31T06:29:32.297Z,83.27
2019-01-31T06:30:32.340Z,83.06
2019-01-31T06:31:32.274Z,83.48
2019-01-31T06:32:32.266Z,83.06
2019-01-31T06:33:32.261Z,82.65
2019-01-31T06:34:32.243Z,82.86
2019-01-31T06:35:32.231Z,82.96
2019-01-31T06:36:32.274Z,83.17
2019-01-31T06:37:32.216Z,82.82
2019-01-31T06:38:32.203Z,82.75
2019-01-31T06:39:32.193Z,82.86
2019-01-31T06:40:32.218Z,83.03
2019-01-31T06:41:32.170Z,82.60
2019-01-31T06:42:32.159Z,82.82
2019-01-31T06:43:32.150Z,82.82
2019-01-31T06:44:32.193Z,82.71
2019-01-31T06:45:32.125Z,82.92
2019-01-31T06:46:32.158Z,82.65
2019-01-31T06:47:32.101Z,82.19
2019-01-31T06:48:34.107Z,82.92
2019-01-31T06:49:32.097Z,82.82
2019-01-31T06:50:32.072Z,83.03
2019-01-31T06:51:32.102Z,82.29
2019-01-31T06:52:32.060Z,82.29
2019-01-31T06:53:32.036Z,82.71
2019-01-31T06:54:32.026Z,82.92
2019-01-31T06:55:32.027Z,82.71
2019-01-31T06:56:32.057Z,82.82
2019-01-31T06:57:32.093Z,82.60
2019-01-31T06:58:32.107Z,82.67
2019-01-31T06:59:31.973Z,82.60
2019-01-31T07:00:31.961Z,82.82
2019-01-31T07:01:31.949Z,82.60
2019-01-31T07:02:31.947Z,83.13
2019-01-31T07:03:31.981Z,82.40
2019-01-31T07:04:31.929Z,82.50
2019-01-31T07:05:31.907Z,82.40
2019-01-31T07:06:31.897Z,82.50
2019-01-31T07:07:31.948Z,82.78
2019-01-31T07:08:31.901Z,82.82
2019-01-31T07:09:31.864Z,82.92
2019-01-31T07:10:31.857Z,82.89
2019-01-31T07:11:31.847Z,83.13
2019-01-31T07:12:31.835Z,83.13
2019-01-31T07:13:33.880Z,83.03
2019-01-31T07:14:31.814Z,83.23
2019-01-31T07:15:31.804Z,82.40
2019-01-31T07:16:31.799Z,82.50
2019-01-31T07:17:31.776Z,82.40
2019-01-31T07:18:31.767Z,82.78
2019-01-31T07:19:31.809Z,82.46
2019-01-31T07:20:31.753Z,81.95
2019-01-31T07:21:31.737Z,82.29
2019-01-31T07:22:31.724Z,82.78
2019-01-31T07:23:31.735Z,81.84
2019-01-31T07:24:31.707Z,82.05
2019-01-31T07:25:31.705Z,82.36
2019-01-31T07:26:31.731Z,82.78
2019-01-31T07:27:31.674Z,82.15
2019-01-31T07:28:31.662Z,82.36
2019-01-31T07:29:31.649Z,82.36
2019-01-31T07:30:31.793Z,82.36
2019-01-31T07:31:31.787Z,82.89
2019-01-31T07:32:31.618Z,82.78
2019-01-31T07:33:31.608Z,82.46
2019-01-31T07:34:31.591Z,82.36
2019-01-31T07:35:31.583Z,82.15
2019-01-31T07:36:31.586Z,81.73
2019-01-31T07:37:31.560Z,82.78
2019-01-31T07:38:31.551Z,81.84
2019-01-31T07:39:31.579Z,82.26
2019-01-31T07:40:31.524Z,82.26
2019-01-31T07:41:41.151Z,82.36
2019-01-31T07:42:32.516Z,82.78
2019-01-31T07:43:31.498Z,82.57
2019-01-31T07:44:31.485Z,82.46
2019-01-31T07:45:31.483Z,82.05
2019-01-31T07:46:31.480Z,81.73
2019-01-31T07:47:31.473Z,82.05
2019-01-31T07:48:31.448Z,82.05
2019-01-31T07:49:31.432Z,81.95
2019-01-31T07:50:31.424Z,82.05
2019-01-31T07:51:31.418Z,82.26
2019-01-31T07:52:31.393Z,82.53
2019-01-31T07:53:31.391Z,81.84
2019-01-31T07:54:31.372Z,81.42
2019-01-31T07:55:31.367Z,81.42
2019-01-31T07:56:31.349Z,81.90
2019-01-31T07:57:31.374Z,81.32
2019-01-31T07:58:31.335Z,81.32
2019-01-31T07:59:31.320Z,81.42
2019-01-31T08:00:31.305Z,81.28
2019-01-31T08:01:31.295Z,82.05
2019-01-31T08:02:31.289Z,81.90
2019-01-31T08:03:31.285Z,81.21
2019-01-31T08:04:31.261Z,81.07
2019-01-31T08:05:31.258Z,81.90
2019-01-31T08:06:31.239Z,81.18
2019-01-31T08:07:31.229Z,81.28
2019-01-31T08:08:31.244Z,81.38
2019-01-31T08:09:31.215Z,81.32
2019-01-31T08:10:31.199Z,81.28
2019-01-31T08:11:31.184Z,81.49
2019-01-31T08:12:31.176Z,81.90
2019-01-31T08:13:31.163Z,81.18
2019-01-31T08:14:31.204Z,81.07
2019-01-31T08:15:31.144Z,81.07
2019-01-31T08:16:31.137Z,80.82
2019-01-31T08:17:31.117Z,80.44
2019-01-31T08:18:31.108Z,80.34
2019-01-31T08:19:31.227Z,80.44
2019-01-31T08:20:31.088Z,80.41
2019-01-31T08:21:31.077Z,80.41
2019-01-31T08:22:31.068Z,80.09
2019-01-31T08:23:31.055Z,80.51
2019-01-31T08:24:31.042Z,80.51
2019-01-31T08:25:31.081Z,80.55
2019-01-31T08:26:31.022Z,80.72
2019-01-31T08:27:31.005Z,80.62
2019-01-31T08:28:31.001Z,80.41
2019-01-31T08:29:30.985Z,80.41
2019-01-31T08:30:31.017Z,80.09
2019-01-31T08:31:30.961Z,80.30
2019-01-31T08:32:30.951Z,80.24
2019-01-31T08:33:30.947Z,80.41
2019-01-31T08:34:30.929Z,80.51
2019-01-31T08:35:30.918Z,80.09
2019-01-31T08:36:30.959Z,80.09
2019-01-31T08:37:30.906Z,80.24
2019-01-31T08:38:30.886Z,80.13
2019-01-31T08:39:30.880Z,80.44
2019-01-31T08:40:30.900Z,80.30
2019-01-31T08:41:30.856Z,80.62
2019-01-31T08:42:30.842Z,80.24
2019-01-31T08:43:30.829Z,80.41
2019-01-31T08:44:30.825Z,80.20
2019-01-31T08:45:30.863Z,80.51
2019-01-31T08:46:30.797Z,80.30
2019-01-31T08:47:30.793Z,80.72
2019-01-31T08:48:30.778Z,80.41
2019-01-31T08:49:30.779Z,80.51
2019-01-31T08:50:30.827Z,79.99
2019-01-31T08:51:30.745Z,79.88
2019-01-31T08:52:30.746Z,80.30
2019-01-31T08:53:30.726Z,80.41
2019-01-31T08:54:30.713Z,80.51
2019-01-31T08:55:30.698Z,79.85
2019-01-31T08:56:30.696Z,80.16
2019-01-31T08:57:30.675Z,80.47
2019-01-31T08:58:30.720Z,79.74
2019-01-31T08:59:31.285Z,79.01
2019-01-31T09:00:30.667Z,79.29
2019-01-31T09:01:31.279Z,79.39
2019-01-31T09:02:30.670Z,79.29
2019-01-31T09:03:30.615Z,79.19
2019-01-31T09:04:30.601Z,78.77
2019-01-31T09:05:30.597Z,78.97
2019-01-31T09:06:30.577Z,78.77
2019-01-31T09:07:30.586Z,78.42
2019-01-31T09:08:30.552Z,78.56
2019-01-31T09:09:30.551Z,77.94
2019-01-31T09:10:30.540Z,78.04
2019-01-31T09:11:30.528Z,78.45
2019-01-31T09:12:30.529Z,78.56
2019-01-31T09:13:30.531Z,78.04
2019-01-31T09:14:30.497Z,78.25
2019-01-31T09:15:30.481Z,77.94
2019-01-31T09:16:30.463Z,78.21
2019-01-31T09:17:30.529Z,77.90
2019-01-31T09:18:30.441Z,78.31
2019-01-31T09:19:30.434Z,78.31
2019-01-31T09:20:30.459Z,77.48
2019-01-31T09:21:30.414Z,77.27
2019-01-31T09:22:30.407Z,77.69
2019-01-31T09:23:30.430Z,77.48
2019-01-31T09:24:30.398Z,77.58
2019-01-31T09:25:30.371Z,77.55
2019-01-31T09:26:30.380Z,77.48
2019-01-31T09:27:30.364Z,77.48
2019-01-31T09:28:30.355Z,78.07
2019-01-31T09:29:30.350Z,77.23
2019-01-31T09:30:30.325Z,77.13
2019-01-31T09:31:30.323Z,76.09
2019-01-31T09:32:30.288Z,76.30
2019-01-31T09:33:30.330Z,76.57
2019-01-31T09:34:30.273Z,76.09
2019-01-31T09:35:30.259Z,76.47
2019-01-31T09:36:30.261Z,76.30
2019-01-31T09:37:30.235Z,76.75
2019-01-31T09:38:30.234Z,77.17
2019-01-31T09:39:30.264Z,77.48
2019-01-31T09:40:30.207Z,78.00
2019-01-31T09:41:30.196Z,77.69
2019-01-31T09:42:30.182Z,77.69
2019-01-31T09:43:30.179Z,77.97
2019-01-31T09:44:30.212Z,77.20
2019-01-31T09:45:30.145Z,76.40
2019-01-31T09:46:30.253Z,76.26
2019-01-31T09:47:31.740Z,75.85
2019-01-31T09:48:30.121Z,76.20
2019-01-31T09:49:30.109Z,76.37
2019-01-31T09:50:30.124Z,75.95
2019-01-31T09:51:30.081Z,76.47
2019-01-31T09:52:30.073Z,75.71
2019-01-31T09:53:30.140Z,75.40
2019-01-31T09:54:30.052Z,74.63
2019-01-31T09:55:30.086Z,73.77
2019-01-31T09:56:30.024Z,72.90
2019-01-31T09:57:30.020Z,72.28
2019-01-31T09:58:30.016Z,72.07
2019-01-31T09:59:29.997Z,71.62
2019-01-31T10:00:30.016Z,71.83
2019-01-31T10:01:30.022Z,71.10
2019-01-31T10:02:29.963Z,71.72
2019-01-31T10:03:29.951Z,71.72
2019-01-31T10:04:29.936Z,71.65
2019-01-31T10:05:29.933Z,71.72
2019-01-31T10:06:29.921Z,71.62
2019-01-31T10:07:29.953Z,71.62
2019-01-31T10:08:29.893Z,71.10
2019-01-31T10:09:29.881Z,71.90
2019-01-31T10:10:29.901Z,71.69
2019-01-31T10:11:29.893Z,70.83
2019-01-31T10:12:37.835Z,70.41
2019-01-31T10:13:30.914Z,70.51
2019-01-31T10:14:29.829Z,70.17
2019-01-31T10:15:29.925Z,68.55
2019-01-31T10:16:29.928Z,68.34
2019-01-31T10:17:29.802Z,67.90
2019-01-31T10:18:29.860Z,67.24
2019-01-31T10:19:29.793Z,66.52
2019-01-31T10:20:29.762Z,65.45
2019-01-31T10:21:29.766Z,64.90
2019-01-31T10:22:29.835Z,63.74
2019-01-31T10:23:29.940Z,63.60
2019-01-31T10:24:29.725Z,62.10
2019-01-31T10:25:29.727Z,61.99
2019-01-31T10:26:29.694Z,60.99
2019-01-31T10:27:29.717Z,61.51
2019-01-31T10:28:30.293Z,61.40
2019-01-31T10:29:29.661Z,60.34
2019-01-31T10:30:30.259Z,59.90
2019-01-31T10:31:29.726Z,60.28
2019-01-31T10:32:29.644Z,59.95
2019-01-31T10:33:29.617Z,59.74
2019-01-31T10:34:29.610Z,58.48
2019-01-31T10:35:29.599Z,57.86
2019-01-31T10:36:29.590Z,57.21
2019-01-31T10:37:29.673Z,57.21
2019-01-31T10:38:29.567Z,56.77
2019-01-31T10:39:29.550Z,56.16
2019-01-31T10:40:29.548Z,56.59
2019-01-31T10:41:29.528Z,57.09
2019-01-31T10:42:29.521Z,56.65
2019-01-31T10:43:29.533Z,55.72
2019-01-31T10:44:29.494Z,56.67
2019-01-31T10:45:29.498Z,56.34
2019-01-31T10:46:29.475Z,54.25
2019-01-31T10:47:29.462Z,54.30
2019-01-31T10:48:29.472Z,53.43
2019-01-31T10:49:29.442Z,54.90
2019-01-31T10:50:29.437Z,55.41
2019-01-31T10:51:29.423Z,55.05
2019-01-31T10:52:29.415Z,53.56
2019-01-31T10:53:29.454Z,52.09
2019-01-31T10:54:29.389Z,51.66
2019-01-31T10:55:29.373Z,50.53
2019-01-31T10:56:29.366Z,49.79
2019-01-31T10:57:29.358Z,49.89
2019-01-31T10:58:29.395Z,50.02
2019-01-31T10:59:29.366Z,50.56
2019-01-31T11:00:29.325Z,50.40
2019-01-31T11:01:29.329Z,50.10
2019-01-31T11:02:29.300Z,49.23
2019-01-31T11:03:29.287Z,48.31
2019-01-31T11:04:29.387Z,48.43
2019-01-31T11:05:29.269Z,49.38
2019-01-31T11:06:29.286Z,49.89
2019-01-31T11:07:29.247Z,49.81
2019-01-31T11:08:29.230Z,51.81
2019-01-31T11:09:29.299Z,51.94
2019-01-31T11:10:29.208Z,53.61
2019-01-31T11:11:29.199Z,54.17
2019-01-31T11:12:29.196Z,55.23
2019-01-31T11:13:29.180Z,56.29
2019-01-31T11:14:29.164Z,56.08
2019-01-31T11:15:29.207Z,56.10
2019-01-31T11:16:29.149Z,57.57
2019-01-31T11:17:29.138Z,57.06
2019-01-31T11:18:29.124Z,57.29
2019-01-31T11:19:29.118Z,57.63
2019-01-31T11:20:29.174Z,58.66
2019-01-31T11:21:29.096Z,58.89
2019-01-31T11:22:29.076Z,58.72
2019-01-31T11:23:29.073Z,59.64
2019-01-31T11:24:29.053Z,59.99
2019-01-31T11:25:29.049Z,60.81
2019-01-31T11:26:29.077Z,61.02
2019-01-31T11:27:29.027Z,61.64
2019-01-31T11:28:29.015Z,60.68
2019-01-31T11:29:29.000Z,60.91
2019-01-31T11:30:28.992Z,60.68
2019-01-31T11:31:28.984Z,60.47
2019-01-31T11:32:29.001Z,59.95
2019-01-31T11:33:28.958Z,60.19
2019-01-31T11:34:33.169Z,60.71
2019-01-31T11:35:28.938Z,61.36
2019-01-31T11:36:28.923Z,61.87
2019-01-31T11:37:28.934Z,62.39
2019-01-31T11:38:28.949Z,61.57
2019-01-31T11:39:28.889Z,61.87
2019-01-31T11:40:28.883Z,62.49
2019-01-31T11:41:28.874Z,62.05
2019-01-31T11:42:28.859Z,62.08
2019-01-31T11:43:28.841Z,61.77
2019-01-31T11:44:28.849Z,61.77
2019-01-31T11:45:28.826Z,61.57
2019-01-31T11:46:28.816Z,60.81
2019-01-31T11:47:28.797Z,61.22
2019-01-31T11:48:28.791Z,60.19
2019-01-31T11:49:28.830Z,60.09
2019-01-31T11:50:28.769Z,59.99
2019-01-31T11:51:28.808Z,60.14
2019-01-31T11:52:28.743Z,59.72
2019-01-31T11:53:28.806Z,60.14
2019-01-31T11:54:28.722Z,59.10
2019-01-31T11:55:28.717Z,60.11
2019-01-31T11:56:28.703Z,58.87
2019-01-31T11:57:28.692Z,58.89
2019-01-31T11:58:28.681Z,59.10
2019-01-31T11:59:28.696Z,59.00
2019-01-31T12:00:28.676Z,58.72
2019-01-31T12:01:28.647Z,58.51
2019-01-31T12:02:28.633Z,59.23
2019-01-31T12:03:28.618Z,58.48
2019-01-31T12:04:28.615Z,58.69
2019-01-31T12:05:28.672Z,57.53
2019-01-31T12:06:28.587Z,58.15
2019-01-31T12:07:28.581Z,57.40
2019-01-31T12:08:28.572Z,57.19
2019-01-31T12:09:28.559Z,57.17
2019-01-31T12:10:28.554Z,57.19
2019-01-31T12:11:28.565Z,56.75
2019-01-31T12:12:28.525Z,56.44
2019-01-31T12:13:28.512Z,56.65
2019-01-31T12:14:28.501Z,56.37
2019-01-31T12:15:28.542Z,56.34
2019-01-31T12:16:28.529Z,55.62
2019-01-31T12:17:28.464Z,56.54
2019-01-31T12:18:28.458Z,55.80
2019-01-31T12:19:28.442Z,56.65
2019-01-31T12:20:28.436Z,55.93
2019-01-31T12:21:28.442Z,55.30
2019-01-31T12:22:28.427Z,55.38
2019-01-31T12:23:28.397Z,55.36
2019-01-31T12:24:28.387Z,54.43
2019-01-31T12:25:28.377Z,53.91
2019-01-31T12:26:28.381Z,54.77
2019-01-31T12:27:28.406Z,55.07
2019-01-31T12:28:28.353Z,55.62
2019-01-31T12:29:28.337Z,55.41
2019-01-31T12:30:28.325Z,55.62
2019-01-31T12:31:28.433Z,56.16
2019-01-31T12:32:28.346Z,56.67
2019-01-31T12:33:30.845Z,56.18
2019-01-31T12:34:28.278Z,56.39
2019-01-31T12:35:28.269Z,56.52
2019-01-31T12:36:28.342Z,56.49
2019-01-31T12:37:28.264Z,56.52
2019-01-31T12:38:36.497Z,57.24
2019-01-31T12:39:29.225Z,57.58
2019-01-31T12:40:28.218Z,58.74
2019-01-31T12:41:28.820Z,57.71
2019-01-31T12:42:28.199Z,58.84
2019-01-31T12:43:35.057Z,57.60
2019-01-31T12:44:29.171Z,58.64
2019-01-31T12:45:28.161Z,58.44
2019-01-31T12:46:28.148Z,58.33
2019-01-31T12:47:28.268Z,58.95
2019-01-31T12:48:29.190Z,58.74
2019-01-31T12:49:28.134Z,58.54
2019-01-31T12:50:28.110Z,58.77
2019-01-31T12:51:28.095Z,58.77
2019-01-31T12:52:28.136Z,59.39